Time;durP1;ratioP1;P1;durP2;ratioP2;P2;SDS_P1;SDS_P2;PMS_P1;PMS_P2;Temp;Humidity;BMP_temperature;BMP_pressure;BME280_temperature;BME280_humidity;BME280_pressure;Samples;Min_cycle;Max_cycle;Signal;HPM_P1;HPM_P2
2023/01/31 00:02:08;;;;;;;26.35;3.35;;;;;;;;;;5081410;28;20044;-73
2023/01/31 00:04:34;;;;;;;28.75;3.45;;;;;;;;;;5081480;28;20055;-74
2023/01/31 00:07:00;;;;;;;22.70;3.00;;;;;;;;;;5094781;28;20056;-74
2023/01/31 00:09:26;;;;;;;22.42;3.55;;;;;;;;;;5087987;28;20456;-73
2023/01/31 00:11:52;;;;;;;27.67;3.13;;;;;;;;;;5074371;28;20051;-74
2023/01/31 00:14:19;;;;;;;24.45;3.10;;;;;;;;;;5073909;28;20056;-73
2023/01/31 00:16:45;;;;;;;24.65;3.55;;;;;;;;;;5079310;28;20571;-73
2023/01/31 00:19:11;;;;;;;27.95;3.83;;;;;;;;;;5081049;28;20379;-73
2023/01/31 00:21:42;;;;;;;21.70;3.13;;;;;;;;;;5081891;28;20466;-73
2023/01/31 00:24:08;;;;;;;27.73;3.70;;;;;;;;;;5062539;28;20121;-74
2023/01/31 00:26:35;;;;;;;24.58;3.13;;;;;;;;;;5081256;28;20052;-74
2023/01/31 00:29:03;;;;;;;28.25;4.13;;;;;;;;;;5066639;28;20128;-74
2023/01/31 00:31:29;;;;;;;30.52;3.38;;;;;;;;;;5081206;28;20446;-74
2023/01/31 00:33:56;;;;;;;25.90;3.35;;;;;;;;;;5083390;28;20040;-74
2023/01/31 00:36:26;;;;;;;25.45;3.30;;;;;;;;;;5080985;28;20055;-74
2023/01/31 00:38:54;;;;;;;25.52;4.20;;;;;;;;;;5082134;28;20043;-74
2023/01/31 00:41:21;;;;;;;26.77;3.83;;;;;;;;;;5080460;28;20382;-74
2023/01/31 00:43:47;;;;;;;22.83;3.45;;;;;;;;;;5083144;28;20070;-74
2023/01/31 00:46:14;;;;;;;33.95;3.65;;;;;;;;;;5082098;28;20052;-74
2023/01/31 00:48:40;;;;;;;25.05;3.10;;;;;;;;;;5081708;28;20040;-74
2023/01/31 00:51:06;;;;;;;27.00;3.60;;;;;;;;;;5085283;28;20044;-74
2023/01/31 00:53:32;;;;;;;25.60;3.28;;;;;;;;;;5093705;28;20048;-73
2023/01/31 00:56:03;;;;;;;22.77;3.20;;;;;;;;;;5093714;28;20047;-73
2023/01/31 00:58:29;;;;;;;27.67;3.90;;;;;;;;;;5091803;28;20048;-74
2023/01/31 01:00:55;;;;;;;21.17;3.45;;;;;;;;;;5088315;28;20391;-74
2023/01/31 01:03:21;;;;;;;29.77;3.33;;;;;;;;;;5093543;28;20060;-74
2023/01/31 01:05:47;;;;;;;20.77;3.08;;;;;;;;;;5093566;28;20055;-74
2023/01/31 01:08:13;;;;;;;29.33;3.20;;;;;;;;;;5083311;28;20406;-74
2023/01/31 01:10:39;;;;;;;20.63;3.30;;;;;;;;;;5093194;28;20109;-74
2023/01/31 01:13:05;;;;;;;32.13;3.33;;;;;;;;;;5090388;28;20047;-74
2023/01/31 01:15:32;;;;;;;27.60;3.22;;;;;;;;;;5082052;28;20402;-74
2023/01/31 01:17:58;;;;;;;24.35;3.13;;;;;;;;;;5090591;28;20043;-74
2023/01/31 01:20:24;;;;;;;21.38;2.90;;;;;;;;;;5091764;28;20143;-74
2023/01/31 01:22:50;;;;;;;28.60;3.85;;;;;;;;;;5088639;28;20089;-72
2023/01/31 01:25:16;;;;;;;28.52;3.08;;;;;;;;;;5080277;28;20055;-73
2023/01/31 01:27:42;;;;;;;26.08;3.00;;;;;;;;;;5089542;28;20113;-74
2023/01/31 01:30:08;;;;;;;29.08;3.38;;;;;;;;;;5091473;28;20054;-74
2023/01/31 01:32:34;;;;;;;25.75;3.00;;;;;;;;;;5087706;28;20059;-73
2023/01/31 01:35:00;;;;;;;20.80;2.95;;;;;;;;;;5090488;28;20059;-73
2023/01/31 01:37:26;;;;;;;24.10;3.10;;;;;;;;;;5078529;28;20040;-74
2023/01/31 01:39:52;;;;;;;28.77;3.45;;;;;;;;;;5087739;28;20066;-73
2023/01/31 01:42:20;;;;;;;26.42;3.45;;;;;;;;;;5088975;28;20090;-74
2023/01/31 01:44:52;;;;;;;28.38;2.85;;;;;;;;;;5089667;28;20040;-74
2023/01/31 01:47:18;;;;;;;24.52;3.33;;;;;;;;;;5088899;28;20036;-74
2023/01/31 01:49:46;;;;;;;16.23;2.60;;;;;;;;;;5090147;28;20044;-74
2023/01/31 01:52:14;;;;;;;22.33;2.78;;;;;;;;;;5086183;28;20078;-74
2023/01/31 01:54:45;;;;;;;22.73;2.67;;;;;;;;;;5092980;28;20127;-74
2023/01/31 01:57:11;;;;;;;;;;;;;;;;;;5093318;28;20512;-75
2023/01/31 01:59:41;;;;;;;24.17;3.08;;;;;;;;;;5075810;28;19920;-74
2023/01/31 02:02:07;;;;;;;19.90;2.60;;;;;;;;;;5074591;28;20051;-74
2023/01/31 02:04:34;;;;;;;31.13;3.67;;;;;;;;;;5081319;28;20056;-74
2023/01/31 02:07:01;;;;;;;22.23;3.08;;;;;;;;;;5080212;28;20052;-74
2023/01/31 02:09:46;;;;;;;20.88;2.72;;;;;;;;;;5081051;28;20055;-74
2023/01/31 02:12:12;;;;;;;27.83;4.80;;;;;;;;;;5082987;28;20048;-74
2023/01/31 02:14:38;;;;;;;25.85;3.55;;;;;;;;;;5084228;28;20490;-74
2023/01/31 02:17:04;;;;;;;23.50;3.15;;;;;;;;;;5084104;28;20040;-74
2023/01/31 02:19:44;;;;;;;24.15;2.83;;;;;;;;;;5082495;28;20048;-74
2023/01/31 02:22:22;;;;;;;28.40;3.72;;;;;;;;;;5084218;28;20547;-74
2023/01/31 02:25:07;;;;;;;23.42;2.97;;;;;;;;;;5072764;28;20040;-74
2023/01/31 02:27:40;;;;;;;28.30;3.20;;;;;;;;;;5083464;28;20178;-74
2023/01/31 02:30:15;;;;;;;17.63;2.47;;;;;;;;;;5065402;28;20044;-74
2023/01/31 02:33:17;;;;;;;18.95;2.88;;;;;;;;;;5085594;28;20490;-74
2023/01/31 02:35:43;;;;;;;;;;;;;;;;;;4980823;28;20054;-74
2023/01/31 02:38:26;;;;;;;18.77;2.40;;;;;;;;;;4975117;28;19964;-74
2023/01/31 02:40:54;;;;;;;22.33;2.63;;;;;;;;;;4977740;28;20082;-74
2023/01/31 02:43:23;;;;;;;21.88;3.00;;;;;;;;;;4983961;28;20113;-74
2023/01/31 02:46:08;;;;;;;21.63;2.90;;;;;;;;;;4993043;28;20046;-74
2023/01/31 02:48:51;;;;;;;15.57;2.15;;;;;;;;;;4966466;28;20057;-74
2023/01/31 02:51:27;;;;;;;24.75;2.97;;;;;;;;;;4968807;28;20053;-74
2023/01/31 02:53:57;;;;;;;27.15;2.90;;;;;;;;;;4988569;28;20042;-74
2023/01/31 02:56:28;;;;;;;20.92;2.90;;;;;;;;;;4987676;28;20055;-74
2023/01/31 02:59:03;;;;;;;15.45;2.30;;;;;;;;;;4986790;28;20476;-74
2023/01/31 03:01:37;;;;;;;21.20;2.70;;;;;;;;;;4991215;28;20090;-74
2023/01/31 03:04:05;;;;;;;24.13;2.70;;;;;;;;;;4991691;28;20057;-74
2023/01/31 03:06:34;;;;;;;19.15;2.85;;;;;;;;;;4989032;28;20046;-74
2023/01/31 03:09:03;;;;;;;21.58;2.80;;;;;;;;;;5004012;28;20053;-74
2023/01/31 03:11:48;;;;;;;22.63;3.03;;;;;;;;;;5067754;28;20036;-74
2023/01/31 03:14:31;;;;;;;20.95;2.67;;;;;;;;;;5091017;28;20049;-74
2023/01/31 03:17:32;;;;;;;20.30;2.80;;;;;;;;;;5066128;28;20049;-74
2023/01/31 03:20:10;;;;;;;22.05;2.90;;;;;;;;;;5088301;28;20040;-74
2023/01/31 03:22:48;;;;;;;25.85;3.13;;;;;;;;;;5091984;28;22229;-74
2023/01/31 03:25:16;;;;;;;24.02;2.40;;;;;;;;;;5084106;28;20044;-74
2023/01/31 03:27:45;;;;;;;21.15;3.25;;;;;;;;;;5092410;28;20039;-74
2023/01/31 03:30:17;;;;;;;26.33;3.40;;;;;;;;;;5090526;28;20117;-74
2023/01/31 03:32:49;;;;;;;17.05;2.72;;;;;;;;;;5077592;28;20123;-74
2023/01/31 03:35:16;;;;;;;17.77;2.65;;;;;;;;;;5070679;28;20080;-74
2023/01/31 03:38:03;;;;;;;19.98;2.90;;;;;;;;;;5068219;28;20044;-74
2023/01/31 03:40:37;;;;;;;20.45;2.80;;;;;;;;;;5075071;28;20083;-74
2023/01/31 03:43:03;;;;;;;21.98;2.40;;;;;;;;;;5093912;28;20052;-74
2023/01/31 03:45:41;;;;;;;23.52;2.70;;;;;;;;;;5091964;28;20113;-74
2023/01/31 03:48:13;;;;;;;17.45;2.42;;;;;;;;;;5091867;28;20063;-74
2023/01/31 03:50:44;;;;;;;16.80;2.10;;;;;;;;;;5092000;28;20173;-74
2023/01/31 03:53:13;;;;;;;19.38;2.90;;;;;;;;;;5085343;28;20068;-74
2023/01/31 03:55:42;;;;;;;25.30;2.80;;;;;;;;;;5091953;28;20397;-74
2023/01/31 03:58:10;;;;;;;22.98;2.63;;;;;;;;;;5087216;28;20044;-73
2023/01/31 04:00:38;;;;;;;21.45;3.00;;;;;;;;;;5093314;28;20048;-74
2023/01/31 04:03:09;;;;;;;17.90;2.90;;;;;;;;;;5047389;28;1068338;-74
2023/01/31 04:05:35;;;;;;;22.50;2.85;;;;;;;;;;5092943;28;20040;-74
2023/01/31 04:08:01;;;;;;;25.95;3.10;;;;;;;;;;5088462;28;20048;-74
2023/01/31 04:10:27;;;;;;;19.38;2.50;;;;;;;;;;5083632;28;20044;-74
2023/01/31 04:12:54;;;;;;;19.98;2.67;;;;;;;;;;5092534;28;20036;-74
2023/01/31 04:15:20;;;;;;;24.35;3.92;;;;;;;;;;5082807;28;20087;-74
2023/01/31 04:17:46;;;;;;;16.67;3.13;;;;;;;;;;5081815;28;20132;-74
2023/01/31 04:20:13;;;;;;;18.13;3.25;;;;;;;;;;5081288;28;20032;-74
2023/01/31 04:22:39;;;;;;;24.70;3.85;;;;;;;;;;5082788;28;20048;-74
2023/01/31 04:25:05;;;;;;;18.92;3.13;;;;;;;;;;5080162;28;20032;-74
2023/01/31 04:27:31;;;;;;;24.92;3.53;;;;;;;;;;5081075;28;20040;-74
2023/01/31 04:29:57;;;;;;;25.98;3.97;;;;;;;;;;5093360;28;20089;-74
2023/01/31 04:32:23;;;;;;;25.75;3.83;;;;;;;;;;5083475;28;20040;-74
2023/01/31 04:34:49;;;;;;;19.77;3.83;;;;;;;;;;5080667;28;20047;-74
2023/01/31 04:37:16;;;;;;;22.23;3.67;;;;;;;;;;5091573;28;20040;-74
2023/01/31 04:39:42;;;;;;;23.10;3.85;;;;;;;;;;5078229;28;20044;-74
2023/01/31 04:42:08;;;;;;;23.17;4.20;;;;;;;;;;5082074;28;20055;-74
2023/01/31 04:44:34;;;;;;;24.85;4.13;;;;;;;;;;5083263;28;20075;-74
2023/01/31 04:47:00;;;;;;;26.60;4.05;;;;;;;;;;5082619;28;20089;-74
2023/01/31 04:49:26;;;;;;;28.13;4.45;;;;;;;;;;5080993;28;20040;-74
2023/01/31 04:51:52;;;;;;;27.05;5.18;;;;;;;;;;5082076;28;20044;-74
2023/01/31 04:54:18;;;;;;;31.55;5.13;;;;;;;;;;5081020;28;20039;-74
2023/01/31 04:56:44;;;;;;;25.67;4.00;;;;;;;;;;5079880;28;20040;-74
2023/01/31 04:59:10;;;;;;;18.92;3.78;;;;;;;;;;5061673;28;20391;-74
2023/01/31 05:01:36;;;;;;;30.70;4.53;;;;;;;;;;5079277;28;20040;-74
2023/01/31 05:04:02;;;;;;;25.27;4.70;;;;;;;;;;5082190;28;20056;-74
2023/01/31 05:06:28;;;;;;;26.42;4.78;;;;;;;;;;5084865;28;20032;-73
2023/01/31 05:08:54;;;;;;;22.58;4.43;;;;;;;;;;5087950;28;20055;-73
2023/01/31 05:11:21;;;;;;;26.13;4.72;;;;;;;;;;5080912;28;20678;-73
2023/01/31 05:13:47;;;;;;;28.88;4.97;;;;;;;;;;5081399;28;20036;-73
2023/01/31 05:16:13;;;;;;;22.52;4.05;;;;;;;;;;5083843;28;20090;-73
2023/01/31 05:18:39;;;;;;;27.58;4.07;;;;;;;;;;5082720;28;20040;-73
2023/01/31 05:21:07;;;;;;;26.85;4.32;;;;;;;;;;5081018;28;20050;-73
2023/01/31 05:23:33;;;;;;;23.50;4.10;;;;;;;;;;5091424;28;20048;-73
2023/01/31 05:25:59;;;;;;;25.00;4.43;;;;;;;;;;5093500;28;20032;-73
2023/01/31 05:28:25;;;;;;;21.77;4.05;;;;;;;;;;5093299;28;20055;-73
2023/01/31 05:30:52;;;;;;;27.70;4.68;;;;;;;;;;5093711;28;20051;-73
2023/01/31 05:33:21;;;;;;;27.80;4.53;;;;;;;;;;5089244;28;20101;-74
2023/01/31 05:35:48;;;;;;;27.38;4.72;;;;;;;;;;5082406;28;20090;-73
2023/01/31 05:38:14;;;;;;;24.23;4.65;;;;;;;;;;5087125;28;20044;-73
2023/01/31 05:40:40;;;;;;;29.23;5.47;;;;;;;;;;5093235;28;20079;-72
2023/01/31 05:43:06;;;;;;;26.23;5.10;;;;;;;;;;5075071;28;20059;-73
2023/01/31 05:45:32;;;;;;;25.73;4.82;;;;;;;;;;5083409;28;20040;-73
2023/01/31 05:47:58;;;;;;;34.08;5.60;;;;;;;;;;5080117;28;20119;-73
2023/01/31 05:50:24;;;;;;;26.83;4.22;;;;;;;;;;5079792;28;20043;-73
2023/01/31 05:52:51;;;;;;;34.05;4.53;;;;;;;;;;5061552;28;20078;-72
2023/01/31 05:55:18;;;;;;;31.85;5.88;;;;;;;;;;5077797;28;20529;-73
2023/01/31 05:57:44;;;;;;;31.77;5.20;;;;;;;;;;5078971;28;20690;-72
2023/01/31 06:00:10;;;;;;;25.98;4.88;;;;;;;;;;5080062;28;20048;-73
2023/01/31 06:02:36;;;;;;;37.58;6.55;;;;;;;;;;5080034;28;20040;-72
2023/01/31 06:05:02;;;;;;;32.17;5.63;;;;;;;;;;5080649;28;20047;-73
2023/01/31 06:07:28;;;;;;;28.83;5.38;;;;;;;;;;5061890;28;20048;-73
2023/01/31 06:09:54;;;;;;;33.58;6.13;;;;;;;;;;5081166;28;20041;-73
2023/01/31 06:12:20;;;;;;;27.08;5.38;;;;;;;;;;5080272;28;20043;-73
2023/01/31 06:14:47;;;;;;;34.53;6.03;;;;;;;;;;5080541;28;21614;-73
2023/01/31 06:17:13;;;;;;;27.27;5.53;;;;;;;;;;5080545;28;20044;-73
2023/01/31 06:19:39;;;;;;;34.05;6.32;;;;;;;;;;5073980;28;20044;-73
2023/01/31 06:22:05;;;;;;;32.97;5.95;;;;;;;;;;5076685;28;20040;-73
2023/01/31 06:24:31;;;;;;;32.63;5.75;;;;;;;;;;5091862;28;20498;-73
2023/01/31 06:26:58;;;;;;;35.67;6.35;;;;;;;;;;5090496;28;20071;-73
2023/01/31 06:29:24;;;;;;;28.83;6.70;;;;;;;;;;5087802;28;20043;-73
2023/01/31 06:31:50;;;;;;;32.10;6.45;;;;;;;;;;5076061;28;20541;-73
2023/01/31 06:34:16;;;;;;;32.58;7.55;;;;;;;;;;5087728;28;20670;-73
2023/01/31 06:36:42;;;;;;;26.95;5.93;;;;;;;;;;5081881;28;20415;-73
2023/01/31 06:39:09;;;;;;;36.88;6.65;;;;;;;;;;5082999;28;20380;-73
2023/01/31 06:41:35;;;;;;;29.17;6.75;;;;;;;;;;5079745;28;20043;-73
2023/01/31 06:44:01;;;;;;;35.75;7.95;;;;;;;;;;5080486;28;20044;-73
2023/01/31 06:46:27;;;;;;;32.10;7.75;;;;;;;;;;5080399;28;20044;-73
2023/01/31 06:48:54;;;;;;;35.97;7.53;;;;;;;;;;5081020;28;20052;-73
2023/01/31 06:51:20;;;;;;;31.80;7.82;;;;;;;;;;5082649;28;20047;-73
2023/01/31 06:53:46;;;;;;;29.58;8.25;;;;;;;;;;5081275;28;20044;-73
2023/01/31 06:56:12;;;;;;;34.25;8.18;;;;;;;;;;5080379;28;20043;-73
2023/01/31 06:58:38;;;;;;;33.85;8.80;;;;;;;;;;5083850;28;20052;-73
2023/01/31 07:01:08;;;;;;;41.00;9.48;;;;;;;;;;5084009;28;20126;-72
2023/01/31 07:03:34;;;;;;;35.78;7.85;;;;;;;;;;5082707;28;20098;-73
2023/01/31 07:06:00;;;;;;;33.40;8.05;;;;;;;;;;5083664;28;20125;-73
2023/01/31 07:08:27;;;;;;;35.58;8.50;;;;;;;;;;5088815;28;20051;-74
2023/01/31 07:10:53;;;;;;;33.60;8.40;;;;;;;;;;5088382;28;20127;-73
2023/01/31 07:13:19;;;;;;;33.22;8.23;;;;;;;;;;5082334;28;20044;-73
2023/01/31 07:15:45;;;;;;;30.90;8.55;;;;;;;;;;5088709;28;20097;-73
2023/01/31 07:18:11;;;;;;;28.58;8.85;;;;;;;;;;5094921;28;20060;-74
2023/01/31 07:20:39;;;;;;;40.88;9.30;;;;;;;;;;5093175;28;20509;-74
2023/01/31 07:23:05;;;;;;;38.22;9.43;;;;;;;;;;5077391;28;20040;-74
2023/01/31 07:25:32;;;;;;;32.30;10.00;;;;;;;;;;5081296;28;20048;-73
2023/01/31 07:27:59;;;;;;;32.88;8.90;;;;;;;;;;5085267;28;20052;-74
2023/01/31 07:30:25;;;;;;;35.28;8.85;;;;;;;;;;5077237;28;20045;-74
2023/01/31 07:32:52;;;;;;;33.38;7.60;;;;;;;;;;5081705;28;20112;-74
2023/01/31 07:35:18;;;;;;;30.63;8.40;;;;;;;;;;5058163;28;20188;-74
2023/01/31 07:37:44;;;;;;;33.33;7.53;;;;;;;;;;5093596;28;20470;-74
2023/01/31 07:40:12;;;;;;;37.58;8.77;;;;;;;;;;5091566;28;20070;-74
2023/01/31 07:42:38;;;;;;;37.83;7.30;;;;;;;;;;5075927;28;20056;-73
2023/01/31 07:45:04;;;;;;;32.67;7.25;;;;;;;;;;5093183;28;20139;-74
2023/01/31 07:47:30;;;;;;;24.40;6.07;;;;;;;;;;5084861;28;20044;-73
2023/01/31 07:49:56;;;;;;;33.75;7.45;;;;;;;;;;5085488;28;20048;-74
2023/01/31 07:52:22;;;;;;;35.28;7.38;;;;;;;;;;5072825;28;20051;-73
2023/01/31 07:54:48;;;;;;;34.50;6.53;;;;;;;;;;5087535;28;20383;-73
2023/01/31 07:57:18;;;;;;;30.05;6.60;;;;;;;;;;5090398;28;20410;-74
2023/01/31 07:59:44;;;;;;;30.88;7.35;;;;;;;;;;5082025;28;20505;-73
2023/01/31 08:04:58;;;;;;;34.45;6.60;;;;;;;;;;5091828;28;20490;-74
2023/01/31 08:07:25;;;;;;;30.05;7.00;;;;;;;;;;5090959;28;20064;-73
2023/01/31 08:09:51;;;;;;;25.48;6.22;;;;;;;;;;5092932;28;20044;-75
2023/01/31 08:12:17;;;;;;;26.45;6.55;;;;;;;;;;5078047;28;20044;-73
2023/01/31 08:14:44;;;;;;;25.08;7.18;;;;;;;;;;5079991;28;20487;-73
2023/01/31 08:17:10;;;;;;;26.70;6.43;;;;;;;;;;5066271;28;20048;-73
2023/01/31 08:19:37;;;;;;;30.15;6.60;;;;;;;;;;5090083;28;20486;-74
2023/01/31 08:22:03;;;;;;;30.63;6.65;;;;;;;;;;5084904;28;20123;-74
2023/01/31 08:24:30;;;;;;;28.30;6.85;;;;;;;;;;5074057;28;20050;-74
2023/01/31 08:26:56;;;;;;;27.13;6.80;;;;;;;;;;5079125;28;20511;-74
2023/01/31 08:29:23;;;;;;;27.75;6.35;;;;;;;;;;5092075;28;20047;-74
2023/01/31 08:31:49;;;;;;;26.30;6.22;;;;;;;;;;5085978;28;20166;-74
2023/01/31 08:34:15;;;;;;;29.02;6.40;;;;;;;;;;5074432;28;20193;-74
2023/01/31 08:36:42;;;;;;;21.52;6.13;;;;;;;;;;5081001;28;20051;-74
2023/01/31 08:39:08;;;;;;;23.48;5.72;;;;;;;;;;5082839;28;20089;-75
2023/01/31 08:41:35;;;;;;;29.33;5.93;;;;;;;;;;5092902;28;20044;-74
2023/01/31 08:44:02;;;;;;;27.50;5.95;;;;;;;;;;5093013;28;20402;-74
2023/01/31 08:46:30;;;;;;;26.73;6.88;;;;;;;;;;5083366;28;20048;-74
2023/01/31 08:48:56;;;;;;;24.67;6.07;;;;;;;;;;5077153;28;20391;-74
2023/01/31 08:51:22;;;;;;;26.50;6.00;;;;;;;;;;5072999;28;20048;-74
2023/01/31 08:53:48;;;;;;;29.73;6.68;;;;;;;;;;5072654;28;20053;-72
2023/01/31 08:56:15;;;;;;;30.10;6.72;;;;;;;;;;5081806;28;20495;-74
2023/01/31 08:58:42;;;;;;;22.98;5.55;;;;;;;;;;5093098;28;20052;-74
2023/01/31 09:01:10;;;;;;;32.03;6.60;;;;;;;;;;5084852;28;20134;-74
2023/01/31 09:03:36;;;;;;;27.85;5.93;;;;;;;;;;5076251;28;20045;-75
2023/01/31 09:06:04;;;;;;;30.38;5.72;;;;;;;;;;5060918;28;20052;-74
2023/01/31 09:08:30;;;;;;;26.70;5.72;;;;;;;;;;5081621;28;20047;-74
2023/01/31 09:10:57;;;;;;;22.23;4.72;;;;;;;;;;5072451;28;20040;-74
2023/01/31 09:13:23;;;;;;;18.60;5.18;;;;;;;;;;5082639;28;20053;-74
2023/01/31 09:15:59;;;;;;;25.75;5.25;;;;;;;;;;5091794;28;20044;-74
2023/01/31 09:18:26;;;;;;;24.45;4.80;;;;;;;;;;5092679;28;20054;-74
2023/01/31 09:20:52;;;;;;;27.55;5.55;;;;;;;;;;5078002;28;20124;-73
2023/01/31 09:23:18;;;;;;;19.55;4.85;;;;;;;;;;5090497;28;20043;-74
2023/01/31 09:25:50;;;;;;;18.13;4.45;;;;;;;;;;5092615;28;20122;-74
2023/01/31 09:28:16;;;;;;;21.48;4.38;;;;;;;;;;5088861;28;20043;-74
2023/01/31 09:30:42;;;;;;;18.42;3.92;;;;;;;;;;5074185;28;20044;-74
2023/01/31 09:33:08;;;;;;;24.77;4.72;;;;;;;;;;5088771;28;20043;-74
2023/01/31 09:35:34;;;;;;;15.75;3.65;;;;;;;;;;5091133;28;20044;-74
2023/01/31 09:38:01;;;;;;;25.00;4.22;;;;;;;;;;5088213;28;20048;-74
2023/01/31 09:40:30;;;;;;;19.23;4.13;;;;;;;;;;5077665;28;20043;-74
2023/01/31 09:42:56;;;;;;;19.88;4.18;;;;;;;;;;5091404;28;20036;-75
2023/01/31 09:45:32;;;;;;;17.92;4.05;;;;;;;;;;5092505;28;20073;-74
2023/01/31 09:47:59;;;;;;;20.95;4.75;;;;;;;;;;5076428;28;20036;-74
2023/01/31 09:50:31;;;;;;;21.42;4.38;;;;;;;;;;5083466;28;20399;-74
2023/01/31 09:52:57;;;;;;;22.58;4.07;;;;;;;;;;5084694;28;20063;-75
2023/01/31 09:55:30;;;;;;;20.65;3.78;;;;;;;;;;5077577;28;21682;-74
2023/01/31 09:58:15;;;;;;;28.15;8.43;;;;;;;;;;5083803;28;20045;-75
2023/01/31 10:01:01;;;;;;;25.67;7.50;;;;;;;;;;5079138;28;20047;-74
2023/01/31 10:03:50;;;;;;;20.17;4.60;;;;;;;;;;5082420;28;20363;-75
2023/01/31 10:06:35;;;;;;;18.75;4.63;;;;;;;;;;5079810;28;20490;-75
2023/01/31 10:09:11;;;;;;;22.02;3.88;;;;;;;;;;5086943;28;20114;-74
2023/01/31 10:11:46;;;;;;;17.48;3.55;;;;;;;;;;5088451;28;20066;-74
2023/01/31 10:14:30;;;;;;;18.88;4.45;;;;;;;;;;5088324;28;20054;-74
2023/01/31 10:17:08;;;;;;;20.80;4.00;;;;;;;;;;5082373;28;20041;-74
2023/01/31 10:19:53;;;;;;;18.83;3.92;;;;;;;;;;5084073;28;20044;-74
2023/01/31 10:22:22;;;;;;;27.17;5.72;;;;;;;;;;5075867;28;20380;-74
2023/01/31 10:24:55;;;;;;;19.70;4.18;;;;;;;;;;5079090;28;20044;-75
2023/01/31 10:27:35;;;;;;;15.27;3.63;;;;;;;;;;5087813;28;20201;-74
2023/01/31 10:30:03;;;;;;;19.60;3.83;;;;;;;;;;5091565;28;20056;-74
2023/01/31 10:32:38;;;;;;;22.48;3.97;;;;;;;;;;5080493;28;20479;-74
2023/01/31 10:35:23;;;;;;;15.65;3.95;;;;;;;;;;5078173;28;20051;-74
2023/01/31 10:38:03;;;;;;;21.50;4.10;;;;;;;;;;5094528;28;20101;-73
2023/01/31 10:40:35;;;;;;;19.48;3.90;;;;;;;;;;5091409;28;20044;-74
2023/01/31 10:43:13;;;;;;;21.88;3.83;;;;;;;;;;5095138;28;20055;-74
2023/01/31 10:45:39;;;;;;;21.52;3.60;;;;;;;;;;5088828;28;20045;-74
2023/01/31 10:48:12;;;;;;;18.48;4.30;;;;;;;;;;5080015;28;20051;-74
2023/01/31 10:50:43;;;;;;;19.90;3.60;;;;;;;;;;5082677;28;20044;-74
2023/01/31 10:53:23;;;;;;;23.88;4.80;;;;;;;;;;5087372;28;20135;-73
2023/01/31 10:56:06;;;;;;;24.88;4.30;;;;;;;;;;5082335;28;20045;-74
2023/01/31 10:58:34;;;;;;;20.20;4.18;;;;;;;;;;5087437;28;20036;-74
2023/01/31 11:01:01;;;;;;;21.77;4.78;;;;;;;;;;5086236;28;20044;-74
2023/01/31 11:03:27;;;;;;;19.77;4.22;;;;;;;;;;5094808;28;20055;-74
2023/01/31 11:05:55;;;;;;;19.40;3.97;;;;;;;;;;5094947;28;20043;-74
2023/01/31 11:08:41;;;;;;;21.88;4.80;;;;;;;;;;5068540;28;20077;-74
2023/01/31 11:11:09;;;;;;;23.65;4.30;;;;;;;;;;5090931;28;20448;-74
2023/01/31 11:13:35;;;;;;;18.13;3.97;;;;;;;;;;5091737;28;20128;-74
2023/01/31 11:16:02;;;;;;;16.15;4.90;;;;;;;;;;5070515;28;20048;-75
2023/01/31 11:18:33;;;;;;;25.20;4.95;;;;;;;;;;5080372;28;20110;-74
2023/01/31 11:21:00;;;;;;;23.15;4.53;;;;;;;;;;5079128;28;20476;-74
2023/01/31 11:23:28;;;;;;;20.40;4.68;;;;;;;;;;5088831;28;20048;-74
2023/01/31 11:25:55;;;;;;;17.73;4.68;;;;;;;;;;5094566;28;20051;-75
2023/01/31 11:28:21;;;;;;;19.23;4.80;;;;;;;;;;5086704;28;20052;-74
2023/01/31 11:30:48;;;;;;;21.58;4.75;;;;;;;;;;5074636;28;20048;-74
2023/01/31 11:33:33;;;;;;;21.10;4.00;;;;;;;;;;5074502;28;20431;-74
2023/01/31 11:35:59;;;;;;;18.65;4.22;;;;;;;;;;5074513;28;20047;-74
2023/01/31 11:38:26;;;;;;;15.20;3.83;;;;;;;;;;5080217;28;20122;-74
2023/01/31 11:40:52;;;;;;;20.05;4.32;;;;;;;;;;5093780;28;20048;-74
2023/01/31 11:43:18;;;;;;;16.02;4.05;;;;;;;;;;5084761;28;20047;-75
2023/01/31 11:45:45;;;;;;;20.10;4.45;;;;;;;;;;5081684;28;20040;-74
2023/01/31 11:48:12;;;;;;;19.55;4.55;;;;;;;;;;5089750;28;20032;-74
2023/01/31 11:50:43;;;;;;;23.33;4.55;;;;;;;;;;5084634;28;20386;-74
2023/01/31 11:53:18;;;;;;;19.13;3.95;;;;;;;;;;5089568;28;20504;-75
2023/01/31 11:55:45;;;;;;;20.50;4.15;;;;;;;;;;5081759;28;20044;-74
2023/01/31 11:58:20;;;;;;;15.90;4.60;;;;;;;;;;5082088;28;20080;-74
2023/01/31 12:00:55;;;;;;;17.00;4.28;;;;;;;;;;5091099;28;20079;-75
2023/01/31 12:03:22;;;;;;;18.38;4.05;;;;;;;;;;5081593;28;20053;-74
2023/01/31 12:05:58;;;;;;;18.77;4.43;;;;;;;;;;5091407;28;20056;-74
2023/01/31 12:08:30;;;;;;;16.52;3.78;;;;;;;;;;5093754;28;20039;-74
2023/01/31 12:10:57;;;;;;;20.65;4.03;;;;;;;;;;5090586;28;20044;-74
2023/01/31 12:13:23;;;;;;;25.83;5.57;;;;;;;;;;5092391;28;20058;-74
2023/01/31 12:16:00;;;;;;;20.15;4.07;;;;;;;;;;5089454;28;20371;-74
2023/01/31 12:18:34;;;;;;;19.95;4.65;;;;;;;;;;5082471;28;20036;-74
2023/01/31 12:21:10;;;;;;;27.17;4.45;;;;;;;;;;5085657;28;20055;-73
2023/01/31 12:23:43;;;;;;;24.20;3.95;;;;;;;;;;5084275;28;20093;-74
2023/01/31 12:26:30;;;;;;;26.13;4.60;;;;;;;;;;5087366;28;20040;-74
2023/01/31 12:29:08;;;;;;;21.25;5.15;;;;;;;;;;5088268;28;20055;-74
2023/01/31 12:31:37;;;;;;;20.65;4.82;;;;;;;;;;5092595;28;20486;-74
2023/01/31 12:34:03;;;;;;;26.98;4.55;;;;;;;;;;5093064;28;20047;-74
2023/01/31 12:36:41;;;;;;;27.48;4.43;;;;;;;;;;5092425;28;20093;-74
2023/01/31 12:39:28;;;;;;;20.15;4.28;;;;;;;;;;5089962;28;20522;-76
2023/01/31 12:42:05;;;;;;;19.65;4.10;;;;;;;;;;5025496;28;20048;-74
2023/01/31 12:44:42;;;;;;;19.45;4.13;;;;;;;;;;5088892;28;20056;-75
2023/01/31 12:47:17;;;;;;;23.92;4.32;;;;;;;;;;5092313;28;20079;-74
2023/01/31 12:50:16;;;;;;;24.58;4.53;;;;;;;;;;5060910;28;20044;-74
2023/01/31 12:52:48;;;;;;;22.13;3.83;;;;;;;;;;5028392;28;20057;-74
2023/01/31 12:55:15;;;;;;;18.30;3.65;;;;;;;;;;5028746;28;20184;-74
2023/01/31 12:57:53;;;;;;;24.83;4.32;;;;;;;;;;5029481;28;20049;-74
2023/01/31 13:00:26;;;;;;;23.42;3.65;;;;;;;;;;5029025;28;20042;-74
2023/01/31 13:02:52;;;;;;;20.77;3.78;;;;;;;;;;5014689;28;20061;-74
2023/01/31 13:05:18;;;;;;;23.48;4.07;;;;;;;;;;5023952;28;20030;-74
2023/01/31 13:08:10;;;;;;;22.77;3.67;;;;;;;;;;5017676;28;20044;-74
2023/01/31 13:10:38;;;;;;;24.73;3.95;;;;;;;;;;5024002;28;20059;-74
2023/01/31 13:13:06;;;;;;;14.05;3.00;;;;;;;;;;5018330;28;20099;-73
2023/01/31 13:15:47;;;;;;;21.13;3.72;;;;;;;;;;5021806;28;22852;-74
2023/01/31 13:18:14;;;;;;;20.50;3.85;;;;;;;;;;5021562;28;20049;-73
2023/01/31 13:20:55;;;;;;;15.10;3.22;;;;;;;;;;5016934;28;20041;-73
2023/01/31 13:23:30;;;;;;;20.30;3.70;;;;;;;;;;5018211;28;20083;-73
2023/01/31 13:26:17;;;;;;;20.52;3.42;;;;;;;;;;5027510;28;20053;-73
2023/01/31 13:28:59;;;;;;;15.52;3.30;;;;;;;;;;5051325;28;20040;-73
2023/01/31 13:31:29;;;;;;;18.67;3.00;;;;;;;;;;5073377;28;20114;-73
2023/01/31 13:34:02;;;;;;;14.75;2.97;;;;;;;;;;5079347;28;20036;-74
2023/01/31 13:36:31;;;;;;;18.02;3.20;;;;;;;;;;5079978;28;20127;-74
2023/01/31 13:39:00;;;;;;;16.80;2.95;;;;;;;;;;5083296;28;20074;-76
2023/01/31 13:41:26;;;;;;;14.05;3.15;;;;;;;;;;5086731;28;20540;-76
2023/01/31 13:43:52;;;;;;;20.45;3.08;;;;;;;;;;5079735;28;20554;-74
2023/01/31 13:46:21;;;;;;;17.58;3.13;;;;;;;;;;5082066;28;20100;-74
2023/01/31 13:48:56;;;;;;;14.93;3.17;;;;;;;;;;5087269;28;20105;-74
2023/01/31 13:51:25;;;;;;;16.08;2.60;;;;;;;;;;5084458;28;20044;-74
2023/01/31 13:53:55;;;;;;;14.45;2.95;;;;;;;;;;5087560;28;20082;-74
2023/01/31 13:56:26;;;;;;;17.00;2.80;;;;;;;;;;5074647;28;20059;-74
2023/01/31 13:58:54;;;;;;;14.27;2.67;;;;;;;;;;5091801;28;20074;-75
2023/01/31 14:01:28;;;;;;;16.17;3.00;;;;;;;;;;5067709;28;20041;-74
2023/01/31 14:04:13;;;;;;;14.02;2.88;;;;;;;;;;5073653;28;20060;-74
2023/01/31 14:06:58;;;;;;;16.75;3.72;;;;;;;;;;5092847;28;20048;-74
2023/01/31 14:09:28;;;;;;;12.32;2.35;;;;;;;;;;5080848;28;20055;-74
2023/01/31 14:11:58;;;;;;;16.38;2.85;;;;;;;;;;5094310;28;20044;-76
2023/01/31 14:14:36;;;;;;;13.23;2.83;;;;;;;;;;5095550;28;20089;-73
2023/01/31 14:17:09;;;;;;;18.00;3.40;;;;;;;;;;5094789;28;20043;-76
2023/01/31 14:19:45;;;;;;;16.08;3.00;;;;;;;;;;5096419;28;20051;-74
2023/01/31 14:22:15;;;;;;;17.35;3.00;;;;;;;;;;5084004;28;20434;-74
2023/01/31 14:24:52;;;;;;;15.27;2.95;;;;;;;;;;5088915;28;20517;-73
2023/01/31 14:27:29;;;;;;;19.35;3.15;;;;;;;;;;5095185;28;20059;-73
2023/01/31 14:30:10;;;;;;;19.65;3.30;;;;;;;;;;5076153;28;20045;-73
2023/01/31 14:32:39;;;;;;;20.98;2.70;;;;;;;;;;5077062;28;20044;-73
2023/01/31 14:35:21;;;;;;;20.52;3.15;;;;;;;;;;5086620;28;20101;-72
2023/01/31 14:38:05;;;;;;;17.70;2.97;;;;;;;;;;5078682;28;20048;-72
2023/01/31 14:40:33;;;;;;;16.52;2.92;;;;;;;;;;5075455;28;20048;-73
2023/01/31 14:43:11;;;;;;;16.20;3.28;;;;;;;;;;5087465;28;20871;-73
2023/01/31 14:45:41;;;;;;;19.33;3.08;;;;;;;;;;5093719;28;20092;-72
2023/01/31 14:48:10;;;;;;;18.98;3.67;;;;;;;;;;5076558;28;20044;-73
2023/01/31 14:50:47;;;;;;;17.10;3.00;;;;;;;;;;5085891;28;20355;-73